Time;durP1;ratioP1;P1;durP2;ratioP2;P2;SDS_P1;SDS_P2;PMS_P1;PMS_P2;Temp;Humidity;BMP_temperature;BMP_pressure;BME280_temperature;BME280_humidity;BME280_pressure;Samples;Min_cycle;Max_cycle;Signal;HPM_P1;HPM_P2
2021/04/10 00:00:38;;;;;;;8.02;2.80;;;11.60;48.20;;;;;;5050366;28;20029;-67
2021/04/10 00:03:09;;;;;;;4.65;2.60;;;11.60;48.10;;;;;;5046494;28;20029;-67
2021/04/10 00:05:34;;;;;;;4.82;2.58;;;11.60;48.30;;;;;;5035321;28;20013;-67
2021/04/10 00:08:00;;;;;;;4.95;2.58;;;11.60;48.30;;;;;;5032040;28;20318;-67
2021/04/10 00:10:28;;;;;;;3.22;2.38;;;11.60;48.30;;;;;;5031389;28;20389;-66
2021/04/10 00:12:55;;;;;;;5.50;3.15;;;11.60;48.10;;;;;;5032184;28;20032;-67
2021/04/10 00:15:21;;;;;;;5.05;2.72;;;11.60;48.20;;;;;;5032540;28;20029;-66
2021/04/10 00:17:47;;;;;;;6.50;2.42;;;11.50;48.20;;;;;;5030798;28;20148;-67
2021/04/10 00:20:17;;;;;;;5.15;2.78;;;11.50;48.30;;;;;;5038702;28;20155;-66
2021/04/10 00:22:43;;;;;;;8.52;2.78;;;11.50;48.40;;;;;;5031803;28;20028;-66
2021/04/10 00:25:10;;;;;;;6.38;2.45;;;11.50;48.50;;;;;;5030848;28;20456;-66
2021/04/10 00:27:37;;;;;;;8.30;2.90;;;11.40;48.60;;;;;;5032127;28;20070;-67
2021/04/10 00:30:08;;;;;;;6.05;2.38;;;11.40;48.70;;;;;;5031894;28;20040;-67
2021/04/10 00:32:33;;;;;;;5.18;2.33;;;11.40;48.70;;;;;;5047072;28;20067;-67
2021/04/10 00:34:59;;;;;;;3.17;2.20;;;11.40;48.70;;;;;;5033745;28;20068;-67
2021/04/10 00:37:25;;;;;;;5.82;2.63;;;11.40;48.80;;;;;;5031863;28;20465;-67
2021/04/10 00:39:50;;;;;;;5.03;2.45;;;11.40;48.80;;;;;;5035564;28;20112;-67
2021/04/10 00:42:16;;;;;;;3.55;2.50;;;11.40;49.00;;;;;;5035519;28;20449;-67
2021/04/10 00:44:42;;;;;;;6.18;2.53;;;11.30;49.10;;;;;;5035907;28;20017;-66
2021/04/10 00:47:08;;;;;;;2.88;1.98;;;11.30;49.00;;;;;;5035639;28;20116;-67
2021/04/10 00:49:33;;;;;;;7.28;2.33;;;11.30;49.00;;;;;;5036414;28;20021;-67
2021/04/10 00:52:00;;;;;;;2.80;2.15;;;11.20;49.00;;;;;;5036174;28;20035;-67
2021/04/10 00:54:27;;;;;;;4.60;2.22;;;11.20;49.20;;;;;;5032630;28;20095;-67
2021/04/10 00:56:52;;;;;;;2.88;1.98;;;11.20;49.20;;;;;;5035239;28;20036;-66
2021/04/10 00:59:18;;;;;;;4.15;1.90;;;11.20;49.20;;;;;;5052440;28;20037;-67
2021/04/10 01:01:44;;;;;;;6.90;2.28;;;11.10;49.20;;;;;;5033331;28;20021;-67
2021/04/10 01:04:09;;;;;;;4.55;2.78;;;11.10;49.30;;;;;;5031752;28;20025;-67
2021/04/10 01:06:35;;;;;;;4.85;2.17;;;11.10;49.40;;;;;;5034874;28;20048;-67
2021/04/10 01:09:00;;;;;;;4.10;2.40;;;11.00;49.40;;;;;;5036146;28;20104;-67
2021/04/10 01:11:35;;;;;;;7.43;2.30;;;11.10;49.50;;;;;;5035246;28;20032;-66
2021/04/10 01:14:38;;;;;;;4.43;2.67;;;11.10;49.70;;;;;;5026986;28;20033;-67
2021/04/10 01:17:11;;;;;;;6.88;2.15;;;11.00;49.60;;;;;;5036011;28;20492;-67
2021/04/10 01:20:21;;;;;;;4.10;2.15;;;11.10;49.60;;;;;;5036343;28;20492;-66
2021/04/10 01:22:57;;;;;;;4.13;2.30;;;11.10;49.60;;;;;;5028937;28;20625;-66
2021/04/10 01:25:51;;;;;;;9.52;2.75;;;11.20;49.70;;;;;;5047097;28;20112;-67
2021/04/10 01:28:50;;;;;;;8.23;2.63;;;11.10;49.70;;;;;;4999731;28;20058;-66
2021/04/10 01:31:18;;;;;;;6.38;2.60;;;11.20;49.80;;;;;;5026604;28;20443;-67
2021/04/10 01:33:48;;;;;;;6.53;3.00;;;11.20;49.80;;;;;;5034293;28;20041;-67
2021/04/10 01:36:20;;;;;;;5.90;2.60;;;11.10;49.80;;;;;;5049237;28;20056;-67
2021/04/10 01:38:49;;;;;;;4.07;2.88;;;11.10;50.00;;;;;;5046160;28;20044;-68
2021/04/10 01:41:17;;;;;;;8.88;2.97;;;11.20;50.10;;;;;;5035284;28;20075;-67
2021/04/10 01:43:44;;;;;;;4.90;2.30;;;11.20;50.10;;;;;;5049376;28;20022;-67
2021/04/10 01:46:10;;;;;;;8.13;2.72;;;11.10;50.10;;;;;;5034628;28;20464;-67
2021/04/10 01:48:39;;;;;;;3.13;2.40;;;11.10;50.10;;;;;;5033322;28;20036;-67
2021/04/10 01:51:05;;;;;;;7.57;2.83;;;11.10;50.20;;;;;;5033670;28;20434;-68
2021/04/10 01:53:33;;;;;;;6.15;2.40;;;11.20;50.30;;;;;;5049159;28;20029;-67
2021/04/10 01:56:00;;;;;;;4.00;2.78;;;11.10;50.30;;;;;;5041246;28;20103;-67
2021/04/10 01:58:27;;;;;;;3.28;1.98;;;11.10;50.30;;;;;;5049776;28;20036;-67
2021/04/10 02:00:55;;;;;;;3.83;2.10;;;11.20;50.40;;;;;;5034695;28;20037;-67
2021/04/10 02:03:21;;;;;;;5.65;2.55;;;11.20;50.50;;;;;;5034980;28;20028;-67
2021/04/10 02:05:52;;;;;;;6.43;2.80;;;11.20;50.50;;;;;;5032415;28;20021;-67
2021/04/10 02:08:19;;;;;;;7.45;2.70;;;11.20;50.60;;;;;;5051389;28;20546;-66
2021/04/10 02:10:46;;;;;;;6.93;2.60;;;11.20;50.60;;;;;;5033824;28;20104;-66
2021/04/10 02:13:13;;;;;;;5.43;2.60;;;11.20;50.70;;;;;;5033888;28;20119;-67
2021/04/10 02:15:39;;;;;;;8.75;2.42;;;11.20;50.90;;;;;;5033811;28;20060;-66
2021/04/10 02:18:05;;;;;;;5.38;2.33;;;11.20;50.90;;;;;;5034413;28;20636;-66
2021/04/10 02:20:30;;;;;;;5.63;2.80;;;11.30;51.00;;;;;;5048285;28;20029;-67
2021/04/10 02:22:57;;;;;;;5.90;2.33;;;11.20;51.00;;;;;;5043630;28;20082;-66
2021/04/10 02:25:27;;;;;;;2.78;2.22;;;11.30;51.10;;;;;;5032546;28;20032;-67
2021/04/10 02:27:54;;;;;;;12.52;2.03;;;11.30;51.20;;;;;;5034756;28;20090;-66
2021/04/10 02:30:21;;;;;;;2.90;1.92;;;11.30;51.20;;;;;;5035133;28;20021;-67
2021/04/10 02:32:54;;;;;;;4.63;2.53;;;11.30;51.20;;;;;;5032951;28;20036;-67
2021/04/10 02:35:31;;;;;;;6.45;2.25;;;11.20;51.20;;;;;;5032445;28;20388;-67
2021/04/10 02:37:58;;;;;;;4.70;2.15;;;11.20;51.20;;;;;;5033187;28;20405;-67
2021/04/10 02:40:32;;;;;;;4.97;2.33;;;11.20;51.70;;;;;;5033840;28;20060;-67
2021/04/10 02:43:00;;;;;;;4.95;2.47;;;11.30;51.20;;;;;;5034057;28;20035;-67
2021/04/10 02:45:27;;;;;;;4.85;2.30;;;11.30;51.30;;;;;;5032573;28;20687;-66
2021/04/10 02:47:59;;;;;;;5.38;1.92;;;11.20;51.50;;;;;;5034234;28;20082;-66
2021/04/10 02:50:27;;;;;;;8.32;2.30;;;11.20;52.10;;;;;;5032764;28;20424;-65
2021/04/10 02:52:55;;;;;;;5.57;2.90;;;11.20;52.20;;;;;;5033137;28;20029;-66
2021/04/10 02:55:35;;;;;;;3.85;2.03;;;11.20;52.50;;;;;;5033779;28;20020;-67
2021/04/10 02:58:04;;;;;;;4.80;2.30;;;11.10;52.70;;;;;;5032297;28;20029;-66
2021/04/10 03:00:31;;;;;;;2.90;2.20;;;11.10;53.20;;;;;;5032544;28;20027;-66
2021/04/10 03:02:58;;;;;;;3.88;2.05;;;11.10;53.20;;;;;;5032750;28;20401;-66
2021/04/10 03:05:24;;;;;;;7.40;2.50;;;11.10;53.40;;;;;;5031623;28;20037;-67
2021/04/10 03:07:52;;;;;;;5.90;2.75;;;11.00;53.60;;;;;;5031038;28;20940;-67
2021/04/10 03:10:19;;;;;;;4.35;2.38;;;11.00;53.70;;;;;;5033914;28;20025;-66
2021/04/10 03:12:46;;;;;;;3.47;2.00;;;11.00;54.50;;;;;;5048091;28;20025;-67
2021/04/10 03:15:13;;;;;;;6.68;2.95;;;11.00;54.00;;;;;;5031303;28;20481;-66
2021/04/10 03:17:40;;;;;;;7.22;2.40;;;10.90;54.00;;;;;;5031045;28;20032;-67
2021/04/10 03:20:12;;;;;;;7.40;2.05;;;11.00;54.40;;;;;;5022075;28;20099;-66
2021/04/10 03:22:40;;;;;;;4.45;1.98;;;11.00;54.50;;;;;;5033918;28;20072;-67
2021/04/10 03:25:06;;;;;;;5.90;1.80;;;11.00;54.40;;;;;;5038014;28;20021;-67
2021/04/10 03:27:32;;;;;;;3.38;1.70;;;11.00;54.40;;;;;;5032092;28;20040;-67
2021/04/10 03:29:58;;;;;;;2.78;1.60;;;11.00;54.30;;;;;;5032698;28;20396;-67
2021/04/10 03:32:25;;;;;;;4.53;1.77;;;11.10;54.50;;;;;;5032020;28;20373;-67
2021/04/10 03:34:51;;;;;;;3.53;1.60;;;11.10;54.60;;;;;;5046327;28;20044;-67
2021/04/10 03:37:17;;;;;;;3.30;1.50;;;11.10;54.70;;;;;;5028319;28;20029;-66
2021/04/10 03:39:43;;;;;;;2.15;1.25;;;11.10;55.00;;;;;;5025611;28;20095;-67
2021/04/10 03:42:09;;;;;;;8.07;1.50;;;11.10;55.10;;;;;;5025569;28;20426;-66
2021/04/10 03:44:35;;;;;;;3.45;1.50;;;11.10;55.40;;;;;;5032288;28;20029;-66
2021/04/10 03:47:01;;;;;;;4.95;1.30;;;11.10;55.20;;;;;;5032614;28;20104;-66
2021/04/10 03:49:26;;;;;;;2.90;1.20;;;11.10;55.40;;;;;;5032554;28;20528;-67
2021/04/10 03:51:52;;;;;;;5.55;1.52;;;11.10;55.40;;;;;;5033419;28;20048;-66
2021/04/10 03:54:18;;;;;;;4.97;1.65;;;11.10;55.40;;;;;;5030129;28;20025;-67
2021/04/10 03:56:43;;;;;;;4.05;1.58;;;11.10;55.50;;;;;;5039287;28;20048;-66
2021/04/10 03:59:09;;;;;;;2.58;1.42;;;11.10;55.80;;;;;;5037103;28;20033;-67
2021/04/10 04:01:35;;;;;;;3.42;1.48;;;11.10;55.80;;;;;;5032237;28;20480;-67
2021/04/10 04:04:00;;;;;;;3.38;1.58;;;11.10;55.90;;;;;;5030849;28;20503;-67
2021/04/10 04:06:26;;;;;;;6.22;1.80;;;11.10;55.90;;;;;;5031477;28;20027;-67
2021/04/10 04:08:51;;;;;;;2.85;1.70;;;11.10;55.90;;;;;;5031280;28;20033;-66
2021/04/10 04:11:20;;;;;;;2.38;1.50;;;11.10;55.90;;;;;;5029837;28;20029;-67
2021/04/10 04:13:46;;;;;;;2.55;1.50;;;11.10;56.10;;;;;;5045966;28;20037;-66
2021/04/10 04:16:11;;;;;;;8.30;1.80;;;11.10;56.00;;;;;;5031155;28;20035;-67
2021/04/10 04:18:37;;;;;;;4.03;1.80;;;11.10;56.30;;;;;;5032956;28;20039;-66
2021/04/10 04:21:03;;;;;;;3.22;1.60;;;11.10;56.40;;;;;;5033352;28;20049;-67
2021/04/10 04:23:29;;;;;;;4.03;1.80;;;11.10;56.60;;;;;;5053737;28;20388;-67
2021/04/10 04:25:55;;;;;;;4.43;1.60;;;11.00;56.70;;;;;;5047417;28;20021;-67
2021/04/10 04:28:21;;;;;;;5.50;1.50;;;11.00;56.70;;;;;;5048564;28;20032;-67
2021/04/10 04:30:47;;;;;;;6.47;1.50;;;11.00;56.80;;;;;;5033185;28;20029;-67
2021/04/10 04:33:12;;;;;;;5.88;1.92;;;11.00;56.90;;;;;;5033011;28;20052;-67
2021/04/10 04:35:38;;;;;;;2.83;1.35;;;11.00;57.00;;;;;;5032276;28;20389;-67
2021/04/10 04:38:04;;;;;;;3.80;1.50;;;11.00;56.90;;;;;;5031933;28;20075;-66
2021/04/10 04:40:29;;;;;;;6.30;1.60;;;11.00;57.00;;;;;;5030915;28;20025;-67
2021/04/10 04:42:55;;;;;;;3.13;1.40;;;11.00;57.30;;;;;;5030906;28;20037;-66
2021/04/10 04:45:21;;;;;;;4.25;1.45;;;11.00;57.00;;;;;;5031492;28;20076;-66
2021/04/10 04:47:46;;;;;;;4.20;1.40;;;11.10;57.00;;;;;;5031143;28;20056;-67
2021/04/10 04:50:12;;;;;;;5.85;1.33;;;11.00;57.00;;;;;;5030183;28;20036;-66
2021/04/10 04:52:38;;;;;;;2.38;1.20;;;11.10;57.00;;;;;;5032997;28;20025;-67
2021/04/10 04:55:05;;;;;;;2.20;1.23;;;11.10;57.00;;;;;;5032160;28;20036;-67
2021/04/10 04:57:31;;;;;;;5.30;1.40;;;11.10;57.00;;;;;;5042027;28;20032;-67
2021/04/10 04:59:57;;;;;;;3.75;1.60;;;11.10;57.20;;;;;;5033047;28;20029;-66
2021/04/10 05:02:23;;;;;;;2.55;1.40;;;11.10;57.40;;;;;;5031097;28;20025;-67
2021/04/10 05:04:49;;;;;;;3.45;1.40;;;11.10;57.50;;;;;;5030441;28;20025;-66
2021/04/10 05:07:15;;;;;;;4.00;1.42;;;11.10;57.60;;;;;;5031617;28;20366;-67
2021/04/10 05:09:40;;;;;;;3.47;1.30;;;11.10;57.90;;;;;;5031614;28;20023;-67
2021/04/10 05:12:07;;;;;;;3.58;1.50;;;11.10;57.80;;;;;;5031147;28;20040;-67
2021/04/10 05:14:32;;;;;;;6.18;1.45;;;11.10;57.90;;;;;;5030999;28;20505;-67
2021/04/10 05:16:58;;;;;;;2.88;1.30;;;11.10;58.00;;;;;;5048422;28;20067;-67
2021/04/10 05:19:24;;;;;;;2.03;1.50;;;11.10;58.00;;;;;;5045468;28;20078;-67
2021/04/10 05:21:49;;;;;;;3.05;1.23;;;11.10;58.10;;;;;;5030406;28;20021;-67
2021/04/10 05:24:15;;;;;;;4.82;1.50;;;11.10;58.30;;;;;;5038685;28;20060;-67
2021/04/10 05:26:40;;;;;;;3.47;1.30;;;11.10;58.50;;;;;;5037619;28;20029;-66
2021/04/10 05:29:06;;;;;;;4.40;1.60;;;11.10;58.50;;;;;;5035326;28;20056;-67
2021/04/10 05:31:32;;;;;;;8.23;1.30;;;11.10;58.70;;;;;;5051312;28;20107;-66
2021/04/10 05:33:58;;;;;;;2.35;1.40;;;11.10;58.90;;;;;;5034428;28;20480;-67
2021/04/10 05:36:23;;;;;;;2.15;1.20;;;11.10;58.80;;;;;;5032787;28;20025;-67
2021/04/10 05:38:49;;;;;;;3.80;1.20;;;11.10;59.00;;;;;;5035575;28;20024;-66
2021/04/10 05:41:15;;;;;;;3.38;1.40;;;11.10;59.00;;;;;;5035570;28;20577;-66
2021/04/10 05:43:43;;;;;;;2.60;1.40;;;11.10;58.80;;;;;;5034969;28;20033;-66
2021/04/10 05:46:12;;;;;;;2.60;1.33;;;11.10;58.90;;;;;;5051173;28;20028;-65
2021/04/10 05:48:38;;;;;;;1.55;0.98;;;11.10;58.80;;;;;;5048408;28;20025;-67
2021/04/10 05:51:04;;;;;;;3.25;1.50;;;11.10;58.70;;;;;;5035064;28;20040;-67
2021/04/10 05:53:29;;;;;;;5.85;2.08;;;11.10;58.90;;;;;;5056807;28;20028;-66
2021/04/10 05:55:55;;;;;;;5.90;1.85;;;11.10;59.20;;;;;;5062140;28;20032;-67
2021/04/10 05:58:21;;;;;;;3.03;1.65;;;11.10;59.30;;;;;;5052930;28;20040;-67
2021/04/10 06:00:47;;;;;;;9.18;1.60;;;11.10;59.50;;;;;;5035685;28;20056;-67
2021/04/10 06:03:14;;;;;;;3.10;1.50;;;11.10;59.50;;;;;;5034907;28;20024;-67
2021/04/10 06:05:43;;;;;;;5.35;1.55;;;11.00;59.50;;;;;;5034056;28;20024;-66
2021/04/10 06:08:08;;;;;;;4.50;1.38;;;11.00;59.60;;;;;;5033744;28;20021;-67
2021/04/10 06:10:34;;;;;;;3.10;1.50;;;11.10;59.80;;;;;;5034170;28;20055;-66
2021/04/10 06:12:59;;;;;;;2.50;1.38;;;11.10;59.90;;;;;;5035435;28;20034;-67
2021/04/10 06:15:25;;;;;;;2.08;1.15;;;11.10;59.90;;;;;;5034306;28;20084;-66
2021/04/10 06:17:51;;;;;;;3.65;1.65;;;11.10;60.20;;;;;;5033023;28;20024;-66
2021/04/10 06:20:18;;;;;;;4.03;1.00;;;11.10;60.20;;;;;;5033737;28;20073;-67
2021/04/10 06:22:43;;;;;;;3.33;1.02;;;11.10;60.30;;;;;;5042467;28;20093;-67
2021/04/10 06:25:09;;;;;;;3.58;1.20;;;11.20;60.20;;;;;;5041269;28;20025;-68
2021/04/10 06:27:36;;;;;;;5.13;1.23;;;11.20;60.20;;;;;;5041307;28;20021;-67
2021/04/10 06:30:04;;;;;;;2.63;1.20;;;11.20;60.80;;;;;;5034831;28;20024;-66
2021/04/10 06:32:30;;;;;;;2.70;1.10;;;11.20;60.30;;;;;;5033110;28;20029;-67
2021/04/10 06:34:55;;;;;;;3.70;1.33;;;11.30;60.30;;;;;;5034362;28;20504;-66
2021/04/10 06:37:21;;;;;;;2.67;1.00;;;11.30;60.40;;;;;;5034282;28;20507;-67
2021/04/10 06:39:47;;;;;;;2.78;1.20;;;11.30;60.40;;;;;;5034125;28;20039;-67
2021/04/10 06:42:13;;;;;;;3.40;1.30;;;11.20;60.30;;;;;;5034244;28;20500;-66
2021/04/10 06:44:38;;;;;;;3.83;1.10;;;11.20;60.40;;;;;;5033556;28;20040;-66
2021/04/10 06:47:05;;;;;;;2.65;1.10;;;11.20;60.60;;;;;;5030811;28;20021;-66
2021/04/10 06:49:31;;;;;;;2.17;1.25;;;11.20;60.70;;;;;;5035043;28;20879;-66
2021/04/10 06:52:01;;;;;;;3.72;1.35;;;11.20;60.80;;;;;;5035139;28;20021;-66
2021/04/10 06:54:34;;;;;;;2.08;1.45;;;11.20;60.90;;;;;;5032522;28;20029;-67
2021/04/10 06:57:22;;;;;;;1.55;1.00;;;11.20;60.90;;;;;;5048692;28;20045;-67
2021/04/10 07:00:09;;;;;;;2.95;1.10;;;11.20;61.10;;;;;;5034638;28;20033;-66
2021/04/10 07:02:37;;;;;;;4.15;1.80;;;11.20;61.20;;;;;;5033705;28;20366;-67
2021/04/10 07:05:03;;;;;;;4.40;1.67;;;11.30;61.10;;;;;;5023696;28;20497;-66
2021/04/10 07:07:29;;;;;;;4.60;1.85;;;11.30;61.30;;;;;;5027611;28;20033;-66
2021/04/10 07:09:54;;;;;;;2.80;1.60;;;11.30;61.30;;;;;;5033245;28;20025;-68
2021/04/10 07:12:20;;;;;;;4.35;1.58;;;11.30;61.40;;;;;;5033118;28;20029;-67
2021/04/10 07:14:46;;;;;;;3.75;1.27;;;11.30;61.30;;;;;;5033612;28;20045;-66
2021/04/10 07:17:13;;;;;;;5.32;1.33;;;11.30;61.40;;;;;;5032590;28;20568;-66
2021/04/10 07:19:39;;;;;;;3.03;1.10;;;11.40;61.40;;;;;;5046494;28;20022;-67
2021/04/10 07:22:09;;;;;;;3.58;1.40;;;11.40;61.40;;;;;;5056531;28;20369;-67
2021/04/10 07:24:47;;;;;;;4.22;1.38;;;11.40;61.50;;;;;;5050837;28;20024;-67
2021/04/10 07:27:20;;;;;;;3.40;1.27;;;11.40;61.50;;;;;;5036159;28;20483;-67
2021/04/10 07:29:48;;;;;;;2.05;1.15;;;11.30;61.60;;;;;;5056294;28;20048;-66
2021/04/10 07:32:23;;;;;;;2.63;1.27;;;11.30;61.50;;;;;;5032075;28;20021;-67
2021/04/10 07:34:50;;;;;;;1.88;1.00;;;11.30;61.70;;;;;;5029871;28;20036;-67
2021/04/10 07:37:36;;;;;;;3.50;1.27;;;11.30;61.60;;;;;;5033193;28;20528;-66
2021/04/10 07:40:11;;;;;;;2.25;1.15;;;11.30;61.60;;;;;;5031139;28;20053;-66
2021/04/10 07:42:43;;;;;;;2.97;1.20;;;11.30;61.60;;;;;;5058074;28;20028;-66
2021/04/10 07:45:32;;;;;;;3.60;1.20;;;11.30;61.50;;;;;;5042067;28;20031;-66
2021/04/10 07:48:10;;;;;;;1.45;1.20;;;11.30;61.50;;;;;;5031603;28;20040;-67
2021/04/10 07:50:38;;;;;;;3.33;1.20;;;11.40;61.70;;;;;;5049634;28;20021;-66
2021/04/10 07:53:23;;;;;;;4.00;1.38;;;11.40;61.60;;;;;;5037468;28;20020;-66
2021/04/10 07:55:50;;;;;;;3.58;1.45;;;11.40;61.60;;;;;;5033130;28;20017;-65
2021/04/10 07:58:23;;;;;;;2.35;1.40;;;11.50;61.60;;;;;;5041830;28;20452;-67
2021/04/10 08:00:51;;;;;;;2.50;1.45;;;11.50;61.60;;;;;;5041528;28;20025;-66
2021/04/10 08:03:37;;;;;;;2.85;1.55;;;11.50;61.40;;;;;;5034070;28;20028;-66
2021/04/10 08:06:05;;;;;;;2.92;1.42;;;11.50;61.40;;;;;;5050087;28;20025;-66
2021/04/10 08:08:53;;;;;;;2.63;1.65;;;11.50;61.30;;;;;;5031960;28;20112;-66
2021/04/10 08:11:41;;;;;;;5.43;2.40;;;11.50;61.30;;;;;;5032615;28;20468;-66
2021/04/10 08:14:10;;;;;;;4.55;1.23;;;11.60;61.40;;;;;;5036087;28;20033;-65
2021/04/10 08:16:44;;;;;;;3.30;1.30;;;11.60;61.30;;;;;;5033768;28;20035;-65
2021/04/10 08:19:10;;;;;;;3.22;1.50;;;11.60;61.30;;;;;;5033155;28;20029;-66
2021/04/10 08:21:38;;;;;;;3.92;1.30;;;11.60;61.20;;;;;;5032394;28;20397;-67
2021/04/10 08:24:23;;;;;;;4.07;1.50;;;11.70;61.10;;;;;;5032808;28;20481;-66
2021/04/10 08:26:50;;;;;;;3.40;1.60;;;11.70;61.00;;;;;;5030981;28;20028;-66
2021/04/10 08:29:17;;;;;;;1.80;1.10;;;11.70;60.80;;;;;;5041578;28;20025;-67
2021/04/10 08:31:43;;;;;;;2.40;1.27;;;11.80;60.80;;;;;;5034336;28;20021;-66
2021/04/10 08:34:08;;;;;;;5.13;1.50;;;11.80;60.60;;;;;;5038368;28;20136;-67
2021/04/10 08:36:38;;;;;;;3.60;1.40;;;11.80;61.10;;;;;;5040770;28;20387;-66
2021/04/10 08:39:04;;;;;;;1.23;1.10;;;11.80;60.50;;;;;;5050821;28;20040;-68
2021/04/10 08:41:31;;;;;;;3.33;1.40;;;11.80;60.40;;;;;;5032550;28;20450;-66
2021/04/10 08:43:58;;;;;;;1.73;1.20;;;11.80;60.40;;;;;;5032582;28;20428;-69
2021/04/10 08:46:25;;;;;;;5.38;1.33;;;11.90;60.40;;;;;;5049591;28;20025;-67
2021/04/10 08:48:55;;;;;;;2.70;1.35;;;11.90;60.20;;;;;;5033018;28;20029;-67
2021/04/10 08:51:22;;;;;;;7.22;4.00;;;11.80;60.10;;;;;;5032445;28;20123;-69
2021/04/10 08:53:50;;;;;;;3.85;1.25;;;11.90;60.40;;;;;;5033103;28;20063;-69
2021/04/10 08:56:22;;;;;;;3.40;1.40;;;11.80;60.20;;;;;;5052324;28;20120;-68
2021/04/10 08:58:48;;;;;;;3.78;1.50;;;11.80;60.20;;;;;;5045298;28;20033;-69
2021/04/10 09:01:20;;;;;;;3.40;1.30;;;11.80;60.10;;;;;;5056883;28;20032;-67
2021/04/10 09:03:45;;;;;;;4.95;1.45;;;11.80;60.20;;;;;;5035796;28;20025;-68
2021/04/10 09:06:15;;;;;;;4.03;1.38;;;11.90;60.10;;;;;;5036305;28;20027;-67
2021/04/10 09:08:41;;;;;;;1.17;1.08;;;11.90;60.20;;;;;;5037039;28;20482;-67
2021/04/10 09:11:08;;;;;;;1.85;1.30;;;11.90;60.10;;;;;;5036730;28;20029;-66
2021/04/10 09:13:44;;;;;;;4.18;1.45;;;12.00;60.20;;;;;;5036863;28;20040;-68
2021/04/10 09:16:28;;;;;;;6.20;1.38;;;12.00;60.20;;;;;;5036238;28;20037;-67
2021/04/10 09:19:02;;;;;;;2.55;1.23;;;12.00;60.10;;;;;;5036476;28;20061;-67
2021/04/10 09:21:55;;;;;;;1.88;1.27;;;11.90;60.10;;;;;;5036598;28;20037;-67
2021/04/10 09:24:38;;;;;;;2.22;1.30;;;11.90;60.40;;;;;;5033797;28;20029;-68
2021/04/10 09:27:09;;;;;;;4.05;1.40;;;11.90;60.30;;;;;;5050576;28;20029;-67
2021/04/10 09:29:54;;;;;;;1.77;1.02;;;11.90;60.30;;;;;;5061261;28;20025;-68
2021/04/10 09:32:33;;;;;;;11.10;1.70;;;11.90;60.40;;;;;;5053053;28;20053;-67
2021/04/10 09:35:04;;;;;;;2.70;1.13;;;11.90;60.70;;;;;;5035770;28;20480;-67
2021/04/10 09:37:30;;;;;;;5.53;1.42;;;11.90;60.80;;;;;;5036427;28;20037;-67
2021/04/10 09:40:09;;;;;;;4.30;1.45;;;11.90;60.70;;;;;;5036189;28;20032;-67
2021/04/10 09:42:38;;;;;;;1.67;1.20;;;12.00;60.60;;;;;;5036268;28;20099;-68
2021/04/10 09:45:18;;;;;;;3.65;1.73;;;12.20;60.50;;;;;;5035209;28;20025;-67
2021/04/10 09:47:56;;;;;;;5.57;1.83;;;12.50;59.90;;;;;;5036100;28;20021;-67
2021/04/10 09:50:26;;;;;;;4.63;1.20;;;12.70;59.50;;;;;;5052327;28;20429;-67
2021/04/10 09:52:58;;;;;;;2.42;1.30;;;12.80;59.10;;;;;;5036170;28;20036;-67
2021/04/10 09:55:25;;;;;;;1.92;1.10;;;12.90;59.40;;;;;;5035784;28;20126;-66
2021/04/10 09:57:56;;;;;;;4.30;1.50;;;12.90;59.00;;;;;;5043137;28;20759;-67
2021/04/10 10:00:30;;;;;;;7.93;1.67;;;12.80;59.00;;;;;;5039435;28;20052;-67
2021/04/10 10:02:56;;;;;;;3.08;1.30;;;12.80;59.30;;;;;;5045030;28;20025;-68
2021/04/10 10:05:23;;;;;;;2.47;1.20;;;12.90;59.00;;;;;;5032253;28;20504;-67
2021/04/10 10:07:50;;;;;;;2.50;1.30;;;12.90;59.00;;;;;;5035618;28;20034;-67
2021/04/10 10:10:16;;;;;;;2.20;1.20;;;12.90;58.90;;;;;;5035800;28;20078;-68
2021/04/10 10:12:42;;;;;;;2.88;1.50;;;13.00;59.00;;;;;;5035739;28;20032;-67
2021/04/10 10:15:24;;;;;;;2.50;1.10;;;13.10;58.90;;;;;;5053500;28;20029;-68
2021/04/10 10:17:50;;;;;;;2.65;1.33;;;13.20;58.50;;;;;;5035591;28;20025;-69
2021/04/10 10:20:16;;;;;;;4.65;2.17;;;13.30;58.40;;;;;;5035135;28;20029;-67
2021/04/10 10:22:43;;;;;;;3.20;1.52;;;13.50;58.60;;;;;;5034793;28;20149;-68
2021/04/10 10:25:11;;;;;;;3.03;2.25;;;13.70;58.10;;;;;;5035121;28;20029;-68
2021/04/10 10:27:47;;;;;;;1.55;1.20;;;13.90;57.90;;;;;;5040413;28;20091;-67
2021/04/10 10:30:21;;;;;;;2.10;1.40;;;13.90;57.70;;;;;;5063836;28;20048;-68
2021/04/10 10:32:49;;;;;;;1.45;1.33;;;14.00;57.50;;;;;;5071863;28;20025;-67
2021/04/10 10:35:17;;;;;;;1.45;1.02;;;14.00;57.50;;;;;;5038387;28;20063;-66
2021/04/10 10:37:52;;;;;;;1.95;1.23;;;14.10;57.30;;;;;;5031658;28;20047;-67
2021/04/10 10:40:28;;;;;;;1.77;1.13;;;14.10;57.30;;;;;;5032534;28;20037;-67
2021/04/10 10:42:58;;;;;;;4.68;1.10;;;14.00;57.40;;;;;;5035234;28;20048;-67
2021/04/10 10:45:41;;;;;;;1.27;1.02;;;13.90;57.50;;;;;;5034910;28;20021;-67
2021/04/10 10:48:30;;;;;;;2.40;1.30;;;13.90;57.50;;;;;;5053612;28;20701;-67
2021/04/10 10:50:58;;;;;;;1.92;1.15;;;14.00;57.60;;;;;;5035141;28;20025;-67
2021/04/10 10:53:36;;;;;;;1.27;1.17;;;14.10;57.20;;;;;;5034962;28;20389;-67
2021/04/10 10:56:11;;;;;;;4.20;1.27;;;14.10;57.30;;;;;;5034185;28;20052;-68
2021/04/10 10:58:43;;;;;;;1.90;1.38;;;14.10;56.80;;;;;;5042722;28;20025;-67
2021/04/10 11:01:34;;;;;;;3.00;1.30;;;14.10;56.40;;;;;;5032836;28;20032;-69
2021/04/10 11:04:19;;;;;;;1.25;1.10;;;14.00;56.30;;;;;;5033959;28;20350;-67
2021/04/10 11:06:47;;;;;;;2.30;1.20;;;14.00;56.80;;;;;;5034341;28;20025;-67
2021/04/10 11:09:25;;;;;;;2.47;1.50;;;14.00;56.80;;;;;;5052308;28;20025;-69
2021/04/10 11:11:57;;;;;;;2.03;1.90;;;13.90;56.90;;;;;;5034676;28;20036;-67
2021/04/10 11:14:26;;;;;;;2.00;1.58;;;13.80;56.90;;;;;;5034231;28;20434;-67
2021/04/10 11:16:53;;;;;;;2.10;1.90;;;13.70;56.90;;;;;;5034087;28;20037;-69
2021/04/10 11:19:25;;;;;;;3.42;1.20;;;13.60;56.70;;;;;;5033076;28;20037;-68
2021/04/10 11:21:51;;;;;;;2.20;1.30;;;13.50;56.90;;;;;;5034368;28;20056;-67
2021/04/10 11:24:16;;;;;;;3.22;1.10;;;13.50;57.10;;;;;;5033613;28;20608;-67
2021/04/10 11:26:44;;;;;;;8.00;1.80;;;13.50;57.20;;;;;;5034250;28;20020;-67
2021/04/10 11:29:28;;;;;;;3.40;1.50;;;13.50;57.40;;;;;;5044522;28;20036;-68
2021/04/10 11:32:12;;;;;;;7.78;3.08;;;13.50;57.60;;;;;;5070675;28;20074;-67
2021/04/10 11:34:39;;;;;;;3.60;1.88;;;13.50;57.50;;;;;;5014157;28;20061;-69
2021/04/10 11:37:06;;;;;;;10.48;4.30;;;13.60;57.50;;;;;;5014533;28;20030;-67
2021/04/10 11:39:53;;;;;;;2.25;1.27;;;13.60;57.40;;;;;;5032582;28;20029;-68
2021/04/10 11:42:29;;;;;;;6.40;1.77;;;13.60;56.90;;;;;;5033808;28;20426;-67
2021/04/10 11:44:58;;;;;;;1.95;1.35;;;13.50;57.00;;;;;;5033724;28;20029;-67
2021/04/10 11:47:29;;;;;;;4.57;2.80;;;13.50;57.20;;;;;;5033597;28;20039;-67
2021/04/10 11:50:09;;;;;;;2.10;1.65;;;13.50;57.40;;;;;;5033611;28;20060;-67
2021/04/10 11:52:36;;;;;;;2.55;1.20;;;13.50;57.50;;;;;;5033987;28;20433;-66
2021/04/10 11:55:08;;;;;;;1.90;1.10;;;13.50;57.40;;;;;;5033461;28;20060;-67
2021/04/10 11:57:40;;;;;;;0.93;0.93;;;13.60;57.50;;;;;;5035893;28;20035;-67
2021/04/10 12:00:13;;;;;;;3.07;1.40;;;13.70;57.30;;;;;;5044383;28;20032;-67
2021/04/10 12:02:44;;;;;;;3.10;1.10;;;13.80;57.00;;;;;;5045329;28;20280;-68
2021/04/10 12:05:27;;;;;;;2.22;1.40;;;13.80;56.70;;;;;;5053986;28;20027;-67
2021/04/10 12:08:10;;;;;;;3.67;1.50;;;13.90;56.70;;;;;;5030585;28;20040;-68
2021/04/10 12:10:43;;;;;;;5.68;1.30;;;13.90;56.60;;;;;;5029289;28;20032;-68
2021/04/10 12:13:10;;;;;;;2.08;1.67;;;13.90;56.40;;;;;;5038876;28;20048;-67
2021/04/10 12:15:37;;;;;;;2.05;1.20;;;13.90;56.60;;;;;;5036447;28;20104;-67
2021/04/10 12:18:05;;;;;;;4.65;1.10;;;13.90;56.60;;;;;;5031532;28;20021;-66
2021/04/10 12:20:32;;;;;;;4.13;1.48;;;14.00;56.70;;;;;;5029428;28;20080;-67
2021/04/10 12:22:57;;;;;;;1.90;1.10;;;14.00;56.60;;;;;;5048360;28;20033;-66
2021/04/10 12:25:23;;;;;;;2.03;1.10;;;14.10;56.50;;;;;;5019587;28;20652;-66
2021/04/10 12:27:52;;;;;;;1.15;1.00;;;14.20;56.50;;;;;;5039533;28;20036;-67
2021/04/10 12:30:18;;;;;;;3.90;1.33;;;14.30;56.20;;;;;;5041318;28;20033;-66
2021/04/10 12:32:44;;;;;;;1.45;1.17;;;14.40;56.20;;;;;;5036732;28;20028;-66
2021/04/10 12:35:10;;;;;;;3.20;1.70;;;14.40;55.80;;;;;;5053908;28;20075;-66
2021/04/10 12:37:36;;;;;;;3.67;1.25;;;14.40;55.70;;;;;;5037194;28;20583;-67
2021/04/10 12:40:03;;;;;;;2.45;1.40;;;14.40;55.80;;;;;;5038277;28;20078;-67
2021/04/10 12:42:28;;;;;;;2.88;1.20;;;14.50;55.90;;;;;;5036501;28;20477;-66
2021/04/10 12:44:54;;;;;;;5.88;1.10;;;14.50;55.90;;;;;;5039451;28;20065;-66
2021/04/10 12:47:21;;;;;;;1.98;1.00;;;14.50;55.90;;;;;;5053862;28;20025;-68
2021/04/10 12:49:48;;;;;;;4.38;1.27;;;14.50;55.60;;;;;;5071016;22;20517;-68
2021/04/10 12:52:14;;;;;;;2.50;1.02;;;14.50;56.00;;;;;;5029838;28;20117;-66
2021/04/10 12:54:40;;;;;;;4.15;1.40;;;14.60;55.90;;;;;;5031130;28;20470;-67
2021/04/10 12:57:07;;;;;;;1.73;1.10;;;14.60;56.00;;;;;;5032315;28;20032;-66